Haddam, Kansas
Current Conditions -  °F | °C
As of 7:15 PM on Wednesday 22 Oct 2014 (Local Time) from KHJH Reporting Station
Thunderstorm Thunderstorm  
Wind Chill: 62°   Ceiling: 6000
Heat Index: 62°   Visibility: 7mi
Dew Point: 59°   Wind: 0mph
Humidity: 91%   Direction: NA
Pressure: 30.04"   Gusts: NA
Location:  39.86°N, 97.3°W
Report Text: KHJH 230015Z AUTO 00000KT 7SM VCTS OVC060 17/15 A3004 RMK AO2 T01660152
Loading
Personal Weather Stations






























Interactive Weather Map
Tropical Storm Tracking
New forecast layout! Learn more

10-Day Weather Forecast

Advertisements
Track Severe Weather on mobile